Terminal Aerodrome Forecast
Issued by NWS

Home | Current Version | Previous Version | Text Only | Print | Product List | Glossary On
Versions: 1 2 3 4 5 6 7 8 9 10 11 12 13 14 15 16 17 18 19 20 21
000
FTUS43 KDLH 261014 AAA
TAFHYR
TAF AMD
KHYR 261014Z 2610/2706 00000KT P6SM -SHRA SCT018 BKN025 OVC040
      TEMPO 2611/2613 5SM -RA BKN020 OVC035
     FM261500 33006KT P6SM SCT200
     FM261800 34010KT P6SM VCSH BKN080
     FM270000 31006KT P6SM SCT080=

USA.gov is the U.S. government's official web portal to all federal, state and local government web resources and services.